YTPE weather

Tempe Downs Airport
Northern Territory, Australia

Public forecast

Using degrees Celsius for public forecast. Weather courtesy of forecast.io.

Closest aviation weather report (METAR) to Tempe Downs Airport

Closest report is Alice Springs Airport, 88.1 nm (163.2 km) ENE. Retrieved 2020/02/21 08:00 UTC (39 minutes ago):

YBAS 210800Z AUTO 14013KT 9999 // NCD 34/04 Q1013 RF000/0000

Closest aviation forecast (TAF) to Tempe Downs Airport

Closest forecast is Alice Springs Airport, 88.1 nm (163.2 km) ENE. Retrieved 2020/02/21 06:00 UTC (3 hours ago):

TAF YBAS 210518Z 2106/2206 13014KT CAVOK FM211000 13008KT CAVOK FM212200 13014KT CAVOK